Jacksonville, FL

2:44 PM EST on January 30, 2015 (GMT -0500)
Jacksonville International | Change Station
CLOSE
Current Station
Airport
Location: Jacksonville,
Elevation: 30 ft
Nearby Weather Stations

Elev 30 ft 30.49 °N, 81.69 °W | Updated 48 minutes ago

Scattered Clouds
Scattered Clouds
66 °F
Feels Like 66 °F
N
10
Wind Variable Wind from NNW
Gusts 20 mph

Today
High -- | Low -- °F
--% Chance of Precip.
Yesterday
High -- | Low -- °F
Precip. -- in
7:19 AM 6:01 PM
Waxing Gibbous, 84% visible
Pressure 30.15 in
Visibility 10.0 miles
Clouds Scattered Clouds 25000 ft
Dew Point 39 °F
Humidity 37%
Rainfall 0.00 in
Snow Depth Not available.
UV 5 out of 12
Pollen 6.70 out of 12
Air Quality Not available.
Flu Activity Not available.
METAR KJAX 301856Z 33009G17KT 10SM SCT250 19/04 A3015 RMK AO2 SLP208 T01890039

More Conditions Fewer Conditions

Pressure 30.15 in
Visibility 10.0 miles
Clouds Scattered Clouds 25000 ft
Dew Point 39 °F
Humidity 37%
Rainfall 0.00 in
Snow Depth Not available.
UV 5 out of 12
Pollen 6.70 out of 12
Air Quality Not available.
Flu Activity Not available.
METAR KJAX 301856Z 33009G17KT 10SM SCT250 19/04 A3015 RMK AO2 SLP208 T01890039

More Conditions Fewer Conditions

10-Day Weather Forecast

Almanac

Astronomy

Jan. 30, 2015 Rise Set
Actual Time
Civil Twilight
Nautical Twilight
Astronomical Twilight
Moon
Length of Visible Light
Length of Day
Tomorrow will be .
, % of the Moon is Illuminated

Today's Extremes

State Highs State Lows

Community

WunderPhotos

Upload Photos

1,791,879 photos uploaded!

WunderBlogs® & News

Nearby

Air Quality

  Air Quality AQ Index Pollutant
Not available.

Snow Depth

Station Depth Elevation

Earthquake Activity

City Distance Mag. Time & Date
Minimum magnitude displayed is 2.5.

Coastal Water Temperatures

Place Temperature

Nearby Weather Stations